Time;durP1;ratioP1;P1;durP2;ratioP2;P2;SDS_P1;SDS_P2;PMS_P1;PMS_P2;Temp;Humidity;BMP_temperature;BMP_pressure;BME280_temperature;BME280_humidity;BME280_pressure;Samples;Min_cycle;Max_cycle;Signal;HPM_P1;HPM_P2
2022/01/29 00:01:23;;;;;;;;;;;2.60;75.70;;;;;;5088566;28;19919;-93
2022/01/29 00:03:57;;;;;;;;;;;2.60;75.50;;;;;;5070867;28;19931;-93
2022/01/29 00:06:22;;;;;;;;;;;2.60;75.50;;;;;;5074931;28;19893;-92
2022/01/29 00:08:57;;;;;;;;;;;2.60;75.50;;;;;;5075198;28;19919;-92
2022/01/29 00:11:28;;;;;;;;;;;2.60;75.50;;;;;;5075004;28;19904;-91
2022/01/29 00:13:55;;;;;;;;;;;2.60;75.50;;;;;;5072723;28;19915;-93
2022/01/29 00:16:21;;;;;;;;;;;2.70;75.50;;;;;;5071395;28;19919;-93
2022/01/29 00:19:13;;;;;;;;;;;2.70;75.50;;;;;;5071444;28;19920;-93
2022/01/29 00:21:38;;;;;;;;;;;2.60;75.50;;;;;;5077492;28;19936;-93
2022/01/29 00:24:07;;;;;;;;;;;2.60;75.50;;;;;;5070199;28;19904;-92
2022/01/29 00:26:33;;;;;;;;;;;2.60;75.30;;;;;;5069794;28;19908;-92
2022/01/29 00:29:18;;;;;;;;;;;2.60;75.10;;;;;;5088639;28;20226;-93
2022/01/29 00:31:46;;;;;;;;;;;2.50;75.00;;;;;;5071576;28;19915;-92
2022/01/29 00:34:12;;;;;;;;;;;2.50;75.00;;;;;;5071089;28;19909;-93
2022/01/29 00:36:41;;;;;;;;;;;2.50;75.00;;;;;;5070987;28;19892;-93
2022/01/29 00:39:06;;;;;;;;;;;2.40;74.90;;;;;;5070273;28;19977;-91
2022/01/29 00:41:32;;;;;;;;;;;2.40;75.00;;;;;;5072758;28;19904;-91
2022/01/29 00:44:05;;;;;;;;;;;2.30;75.10;;;;;;5073354;28;19912;-93
2022/01/29 00:46:41;;;;;;;;;;;2.20;75.10;;;;;;5072608;28;19975;-92
2022/01/29 00:49:10;;;;;;;;;;;2.10;75.30;;;;;;5055686;28;19905;-93
2022/01/29 00:54:51;;;;;;;;;;;1.90;75.40;;;;;;5091271;28;19915;-93
2022/01/29 01:00:22;;;;;;;;;;;1.60;75.50;;;;;;5094049;28;19967;-92
2022/01/29 01:05:54;;;;;;;;;;;1.40;75.70;;;;;;5088915;28;19934;-95
2022/01/29 01:14:29;;;;;;;;;;;1.10;75.90;;;;;;5092517;28;19915;-95
2022/01/29 01:16:57;;;;;;;;;;;1.00;76.00;;;;;;5078578;28;19938;-95
2022/01/29 01:22:26;;;;;;;;;;;0.90;75.90;;;;;;5097503;28;19919;-96
2022/01/29 01:24:51;;;;;;;;;;;0.80;75.90;;;;;;5083016;28;19896;-96
2022/01/29 01:27:19;;;;;;;;;;;0.80;76.00;;;;;;5083353;28;19956;-95
2022/01/29 01:29:48;;;;;;;;;;;0.80;76.00;;;;;;5083103;28;19904;-95
2022/01/29 01:32:23;;;;;;;;;;;0.70;76.00;;;;;;5079879;28;19908;-95
2022/01/29 01:34:52;;;;;;;;;;;0.70;76.00;;;;;;5070115;28;19965;-96
2022/01/29 01:40:17;;;;;;;;;;;0.60;76.10;;;;;;5061249;28;20284;-93
2022/01/29 01:42:48;;;;;;;;;;;0.50;76.00;;;;;;5065957;28;19939;-96
2022/01/29 01:45:13;;;;;;;;;;;0.40;76.10;;;;;;5066997;28;19980;-94
2022/01/29 01:47:42;;;;;;;;;;;0.40;76.10;;;;;;5067780;28;19944;-95
2022/01/29 01:50:08;;;;;;;;;;;0.30;76.10;;;;;;5066180;28;19893;-94
2022/01/29 01:52:33;;;;;;;;;;;0.30;76.30;;;;;;5065225;28;19915;-92
2022/01/29 01:54:59;;;;;;;;;;;0.30;76.30;;;;;;5068367;28;19940;-95
2022/01/29 01:57:25;;;;;;;;;;;0.20;76.30;;;;;;5070155;28;19915;-96
2022/01/29 01:59:53;;;;;;;;;;;0.20;76.40;;;;;;5069488;28;19909;-96
2022/01/29 02:02:18;;;;;;;;;;;0.10;76.50;;;;;;5070008;28;19916;-96
2022/01/29 02:04:44;;;;;;;;;;;0.10;76.50;;;;;;5071544;28;19916;-96
2022/01/29 02:07:10;;;;;;;;;;;0.10;76.50;;;;;;5071256;28;20365;-95
2022/01/29 02:09:48;;;;;;;;;;;0.00;76.50;;;;;;5069335;28;20026;-95
2022/01/29 02:12:35;;;;;;;;;;;0.00;76.50;;;;;;5070535;28;19909;-96
2022/01/29 02:15:07;;;;;;;;;;;0.00;76.50;;;;;;5070108;28;19968;-94
2022/01/29 02:17:33;;;;;;;;;;;0.00;76.50;;;;;;5070252;28;19913;-96
2022/01/29 02:19:59;;;;;;;;;;;0.00;76.60;;;;;;5070243;28;19920;-96
2022/01/29 02:22:25;;;;;;;;;;;0.00;76.60;;;;;;5070565;28;19962;-96
2022/01/29 02:24:53;;;;;;;;;;;0.00;76.60;;;;;;5074252;28;19919;-96
2022/01/29 02:27:20;;;;;;;;;;;-3276.70;76.50;;;;;;5072395;28;19908;-95
2022/01/29 02:29:48;;;;;;;;;;;0.00;76.50;;;;;;5072313;28;19916;-96
2022/01/29 02:38:28;;;;;;;;;;;-3276.70;76.40;;;;;;5048229;28;19919;-95
2022/01/29 02:41:05;;;;;;;;;;;-3276.70;76.40;;;;;;5070247;28;19951;-96
2022/01/29 02:43:36;;;;;;;;;;;-3276.70;76.50;;;;;;5069329;28;20373;-95
2022/01/29 02:48:48;;;;;;;;;;;-3276.70;76.40;;;;;;5090295;28;20372;-96
2022/01/29 02:51:16;;;;;;;;;;;0.00;76.40;;;;;;5071663;28;20273;-96
2022/01/29 02:53:50;;;;;;;;;;;0.00;76.30;;;;;;5073035;28;19908;-96
2022/01/29 02:56:19;;;;;;;;;;;0.00;76.30;;;;;;5073917;28;19909;-96
2022/01/29 02:58:46;;;;;;;;;;;0.00;76.30;;;;;;5070339;28;19917;-96
2022/01/29 03:01:12;;;;;;;;;;;0.00;76.30;;;;;;5053055;28;19897;-96
2022/01/29 03:03:40;;;;;;;;;;;0.00;76.30;;;;;;5070295;28;19923;-96
2022/01/29 03:06:10;;;;;;;;;;;0.00;76.30;;;;;;5069403;28;20309;-95
2022/01/29 03:08:36;;;;;;;;;;;0.00;76.30;;;;;;5069526;28;19907;-96
2022/01/29 03:11:02;;;;;;;;;;;0.00;76.40;;;;;;5071074;28;19958;-96
2022/01/29 03:13:28;;;;;;;;;;;0.00;76.40;;;;;;5071451;28;19908;-96
2022/01/29 03:15:54;;;;;;;;;;;0.00;76.40;;;;;;5070306;28;19968;-96
2022/01/29 03:18:24;;;;;;;;;;;0.00;76.40;;;;;;5072295;28;19900;-96
2022/01/29 03:20:50;;;;;;;;;;;0.00;76.40;;;;;;5072165;28;19904;-96
2022/01/29 03:23:16;;;;;;;;;;;-3276.70;76.50;;;;;;5071776;28;19968;-96
2022/01/29 03:25:42;;;;;;;;;;;-3276.70;76.50;;;;;;5054498;28;19908;-95
2022/01/29 03:28:08;;;;;;;;;;;-3276.70;76.50;;;;;;5070155;28;19980;-96
2022/01/29 03:30:34;;;;;;;;;;;-3276.70;76.50;;;;;;5070486;28;19972;-96
2022/01/29 03:33:13;;;;;;;;;;;-3276.70;76.40;;;;;;5071725;28;19908;-96
2022/01/29 03:35:39;;;;;;;;;;;-3276.70;76.50;;;;;;5074076;28;19912;-96
2022/01/29 03:38:05;;;;;;;;;;;-3276.70;76.50;;;;;;5072390;28;19965;-96
2022/01/29 03:40:32;;;;;;;;;;;-3276.70;76.50;;;;;;5070344;28;19980;-96
2022/01/29 03:43:08;;;;;;;;;;;-3276.70;76.40;;;;;;5072071;28;19923;-94
2022/01/29 03:45:36;;;;;;;;;;;-3276.70;76.50;;;;;;5066793;28;19912;-96
2022/01/29 03:48:06;;;;;;;;;;;-3276.60;76.50;;;;;;5067346;28;19908;-96
2022/01/29 03:50:32;;;;;;;;;;;-3276.60;76.50;;;;;;5067860;28;20384;-94
2022/01/29 03:52:58;;;;;;;;;;;-3276.60;76.50;;;;;;5068230;28;19919;-96
2022/01/29 03:55:24;;;;;;;;;;;-3276.60;76.40;;;;;;5068020;28;19908;-96
2022/01/29 03:57:49;;;;;;;;;;;-3276.50;76.40;;;;;;5067227;28;19905;-94
2022/01/29 04:00:15;;;;;;;;;;;-3276.50;76.40;;;;;;5066932;28;20265;-96
2022/01/29 04:02:43;;;;;;;;;;;-3276.50;76.40;;;;;;5067309;28;19916;-96
2022/01/29 04:05:09;;;;;;;;;;;-3276.50;76.40;;;;;;5068985;28;19900;-95
2022/01/29 04:07:42;;;;;;;;;;;-3276.40;76.40;;;;;;5069837;28;19893;-96
2022/01/29 04:10:08;;;;;;;;;;;-3276.40;76.50;;;;;;5070588;28;19895;-96
2022/01/29 04:12:40;;;;;;;;;;;-3276.40;76.60;;;;;;5069170;28;20268;-95
2022/01/29 04:15:06;;;;;;;;;;;-3276.40;76.60;;;;;;5070275;28;19911;-96
2022/01/29 04:17:38;;;;;;;;;;;-3276.30;76.60;;;;;;5068131;28;19904;-95
2022/01/29 04:20:04;;;;;;;;;;;-3276.30;76.70;;;;;;5067484;28;19908;-94
2022/01/29 04:22:30;;;;;;;;;;;-3276.30;76.60;;;;;;5067356;28;20364;-95
2022/01/29 04:24:56;;;;;;;;;;;-3276.30;76.70;;;;;;5068352;28;20008;-95
2022/01/29 04:27:41;;;;;;;;;;;-3276.20;76.70;;;;;;5070707;28;19954;-95
2022/01/29 04:30:12;;;;;;;;;;;-3276.30;76.80;;;;;;5073873;28;19938;-96
2022/01/29 04:35:06;;;;;;;;;;;-3276.20;76.80;;;;;;5091881;28;19968;-95
2022/01/29 04:37:32;;;;;;;;;;;-3276.20;76.80;;;;;;5073364;28;19935;-96
2022/01/29 04:39:58;;;;;;;;;;;-3276.20;76.80;;;;;;5079967;28;19940;-95
2022/01/29 04:42:23;;;;;;;;;;;-3276.20;76.90;;;;;;5080655;28;19983;-96
2022/01/29 04:44:55;;;;;;;;;;;-3276.20;76.90;;;;;;5080561;28;19972;-95
2022/01/29 04:53:40;;;;;;;;;;;-3276.20;77.00;;;;;;5085699;28;19951;-95
2022/01/29 04:56:06;;;;;;;;;;;-3276.10;77.00;;;;;;5068247;28;19908;-96
2022/01/29 04:58:32;;;;;;;;;;;-3276.00;77.10;;;;;;5072724;28;19908;-96
2022/01/29 05:01:00;;;;;;;;;;;-3276.00;77.10;;;;;;5072627;28;19951;-95
2022/01/29 05:03:29;;;;;;;;;;;-3276.00;77.10;;;;;;5074789;28;19947;-96
2022/01/29 05:05:58;;;;;;;;;;;-3276.00;77.10;;;;;;5072009;28;19904;-96
2022/01/29 05:08:23;;;;;;;;;;;-3276.00;77.10;;;;;;5072021;28;19948;-96
2022/01/29 05:10:49;;;;;;;;;;;-3276.00;77.10;;;;;;5069530;28;19935;-95
2022/01/29 05:13:20;;;;;;;;;;;-3276.00;77.20;;;;;;5066828;28;19916;-96
2022/01/29 05:27:18;;;;;;;;;;;-3275.90;77.20;;;;;;5071686;28;19919;-89
2022/01/29 05:29:43;;;;;;;;;;;-3275.90;77.20;;;;;;5062240;28;19944;-89
2022/01/29 05:32:11;;;;;;;;;;;-3275.80;77.30;;;;;;5062740;28;19915;-89
2022/01/29 05:34:40;;;;;;;;;;;-3275.80;77.30;;;;;;5061912;28;19979;-90
2022/01/29 05:37:06;;;;;;;;;;;-3275.80;77.30;;;;;;5061624;28;19999;-90
2022/01/29 05:39:31;;;;;;;;;;;-3275.80;77.30;;;;;;5062023;28;19940;-88
2022/01/29 05:41:58;;;;;;;;;;;-3275.80;77.30;;;;;;5061770;28;19958;-89
2022/01/29 05:44:24;;;;;;;;;;;-3275.80;77.30;;;;;;5061739;28;19922;-90
2022/01/29 05:46:50;;;;;;;;;;;-3275.80;77.30;;;;;;5061660;28;20082;-89
2022/01/29 05:49:15;;;;;;;;;;;-3275.80;77.40;;;;;;5061883;28;19915;-89
2022/01/29 05:51:41;;;;;;;;;;;-3275.80;77.40;;;;;;5073157;28;19930;-89
2022/01/29 05:54:06;;;;;;;;;;;-3275.70;77.40;;;;;;5062310;28;19913;-90
2022/01/29 05:56:32;;;;;;;;;;;-3275.70;77.40;;;;;;5062913;28;19915;-90
2022/01/29 05:58:57;;;;;;;;;;;-3275.70;77.50;;;;;;5063763;28;19908;-89
2022/01/29 06:01:23;;;;;;;;;;;-3275.70;77.50;;;;;;5061496;28;19915;-89
2022/01/29 06:03:48;;;;;;;;;;;-3275.70;77.50;;;;;;5058728;28;19912;-89
2022/01/29 06:06:37;;;;;;;;;;;-3275.70;77.60;;;;;;5061979;28;19950;-90
2022/01/29 06:09:04;;;;;;;;;;;-3275.70;77.60;;;;;;5062545;28;20005;-89
2022/01/29 06:11:31;;;;;;;;;;;-3275.70;77.60;;;;;;5060933;28;19908;-89
2022/01/29 06:13:56;;;;;;;;;;;-3275.60;77.70;;;;;;5060730;28;20388;-89
2022/01/29 06:16:22;;;;;;;;;;;-3275.60;77.70;;;;;;5061758;28;19908;-89
2022/01/29 06:18:47;;;;;;;;;;;-3275.60;77.70;;;;;;5060096;28;19916;-88
2022/01/29 06:21:14;;;;;;;;;;;-3275.60;77.70;;;;;;5060610;28;20316;-90
2022/01/29 06:23:40;;;;;;;;;;;-3275.50;77.80;;;;;;5074946;28;19912;-90
2022/01/29 06:26:07;;;;;;;;;;;-3275.50;77.80;;;;;;5055433;28;19908;-89
2022/01/29 06:29:14;;;;;;;;;;;-3275.60;77.90;;;;;;5060647;28;19920;-91
2022/01/29 06:31:39;;;;;;;;;;;-3275.70;77.90;;;;;;5054193;28;19913;-89
2022/01/29 06:34:05;;;;;;;;;;;-3275.80;77.80;;;;;;5060736;28;20475;-90
2022/01/29 06:36:30;;;;;;;;;;;-3276.00;77.70;;;;;;5061401;28;20004;-89
2022/01/29 06:38:56;;;;;;;;;;;-3276.20;77.60;;;;;;5061715;28;20014;-90
2022/01/29 06:41:23;;;;;;;;;;;-3276.20;77.40;;;;;;5062112;28;19963;-90
2022/01/29 06:44:06;;;;;;;;;;;-3276.20;77.20;;;;;;5063673;28;19917;-89
2022/01/29 06:46:31;;;;;;;;;;;-3276.30;77.20;;;;;;5063467;28;19950;-90
2022/01/29 06:48:57;;;;;;;;;;;-3276.30;77.20;;;;;;5062147;28;19908;-90
2022/01/29 06:51:22;;;;;;;;;;;-3276.20;77.20;;;;;;5062344;28;19999;-90
2022/01/29 06:53:48;;;;;;;;;;;-3276.20;77.20;;;;;;5062972;28;20718;-90
2022/01/29 06:56:17;;;;;;;;;;;-3276.20;77.30;;;;;;5062382;28;20467;-89
2022/01/29 07:01:47;;;;;;;;;;;-3276.20;77.30;;;;;;5045054;28;19939;-88
2022/01/29 07:07:27;;;;;;;;;;;-3276.30;77.30;;;;;;5037354;28;19932;-89
2022/01/29 07:10:29;;;;;;;;;;;-3276.40;77.40;;;;;;5023019;28;19924;-89
2022/01/29 07:12:59;;;;;;;;;;;-3276.50;77.30;;;;;;5023716;28;19963;-89
2022/01/29 07:18:52;;;;;;;;;;;-3276.50;77.30;;;;;;5039387;28;20398;-89
2022/01/29 07:21:18;;;;;;;;;;;-3276.50;77.30;;;;;;5019834;28;19924;-89
2022/01/29 07:23:44;;;;;;;;;;;-3276.50;77.30;;;;;;5019610;28;19919;-89
2022/01/29 07:26:13;;;;;;;;;;;-3276.50;77.30;;;;;;5021038;28;20401;-89
2022/01/29 07:28:39;;;;;;;;;;;-3276.60;77.40;;;;;;5021116;28;19905;-89
2022/01/29 07:31:05;;;;;;;;;;;-3276.60;77.40;;;;;;5039350;28;20337;-89
2022/01/29 07:33:30;;;;;;;;;;;-3276.60;77.30;;;;;;5040239;28;19909;-90
2022/01/29 07:35:56;;;;;;;;;;;-3276.70;77.20;;;;;;5040540;28;19928;-89
2022/01/29 07:38:44;;;;;;;;;;;-3276.70;77.20;;;;;;5042031;28;19916;-89
2022/01/29 07:41:13;;;;;;;;;;;-3276.70;77.20;;;;;;5057975;28;19919;-89
2022/01/29 07:46:48;;;;;;;;;;;-3276.70;77.30;;;;;;5062072;28;20432;-89
2022/01/29 07:49:14;;;;;;;;;;;0.00;77.20;;;;;;5051509;28;19909;-88
2022/01/29 07:51:40;;;;;;;;;;;0.00;77.20;;;;;;5051405;28;19908;-90
2022/01/29 07:54:08;;;;;;;;;;;0.00;77.20;;;;;;5056808;28;19912;-90
2022/01/29 07:56:34;;;;;;;;;;;0.10;77.10;;;;;;5056206;28;19913;-90
2022/01/29 07:59:12;;;;;;;;;;;0.20;77.10;;;;;;5046637;28;19974;-90
2022/01/29 08:01:38;;;;;;;;;;;0.30;77.00;;;;;;5044246;28;19901;-89
2022/01/29 08:10:49;;;;;;;;;;;1.00;75.70;;;;;;5066242;28;19947;-91
2022/01/29 08:22:39;;;;;;;;;;;1.50;74.00;;;;;;5018997;28;19981;-90
2022/01/29 08:25:07;;;;;;;;;;;1.60;73.90;;;;;;5076426;28;19920;-90
2022/01/29 08:27:53;;;;;;;;;;;1.60;73.80;;;;;;5062743;28;20393;-90
2022/01/29 08:30:21;;;;;;;;;;;1.60;73.90;;;;;;5062211;28;19905;-90
2022/01/29 08:32:46;;;;;;;;;;;1.60;73.80;;;;;;5063540;28;19904;-90
2022/01/29 08:35:14;;;;;;;;;;;1.50;73.70;;;;;;5063363;28;19911;-89
2022/01/29 08:37:44;;;;;;;;;;;1.50;73.70;;;;;;5062660;28;19917;-90
2022/01/29 08:40:17;;;;;;;;;;;1.50;73.50;;;;;;5064526;28;20311;-91
2022/01/29 08:42:48;;;;;;;;;;;1.50;73.40;;;;;;5044015;28;19956;-86
2022/01/29 08:45:13;;;;;;;;;;;1.40;73.30;;;;;;5054330;28;20003;-89
2022/01/29 08:53:45;;;;;;;;;;;1.50;73.20;;;;;;5080856;28;19919;-94
2022/01/29 08:56:17;;;;;;;;;;;1.60;72.90;;;;;;5062807;28;19917;-93
2022/01/29 08:58:45;;;;;;;;;;;1.60;73.00;;;;;;5062583;28;19962;-94
2022/01/29 09:07:28;;;;;;;;;;;;;;;;;;;;;
2022/01/29 09:13:35;;;;;;;;;;;2.00;72.80;;;;;;5013946;28;19913;-94
2022/01/29 09:16:26;;;;;;;;;;;2.10;72.20;;;;;;5043019;28;19908;-93
2022/01/29 09:35:02;;;;;;;;;;;3.00;69.50;;;;;;5082879;28;19924;-91
2022/01/29 09:37:50;;;;;;;;;;;3.20;68.80;;;;;;5060713;28;19908;-90
2022/01/29 09:43:19;;;;;;;;;;;3.40;68.20;;;;;;5065581;28;19919;-90
2022/01/29 09:45:49;;;;;;;;;;;3.50;67.90;;;;;;5061686;28;19913;-90
2022/01/29 09:48:21;;;;;;;;;;;3.60;67.80;;;;;;5065228;28;19912;-94
2022/01/29 09:51:05;;;;;;;;;;;3.70;67.30;;;;;;5069812;28;19935;-93
2022/01/29 09:53:30;;;;;;;;;;;3.80;66.20;;;;;;5066421;28;19943;-94
2022/01/29 09:55:56;;;;;;;;;;;3.90;66.40;;;;;;5068458;28;19947;-92
2022/01/29 09:58:24;;;;;;;;;;;4.00;66.30;;;;;;5065119;28;19916;-93
2022/01/29 10:00:50;;;;;;;;;;;4.10;66.00;;;;;;5062508;28;19911;-89
2022/01/29 10:03:16;;;;;;;;;;;4.30;66.10;;;;;;5057364;28;19912;-85
2022/01/29 10:05:43;;;;;;;;;;;4.50;64.70;;;;;;5059496;28;19904;-85
2022/01/29 10:08:09;;;;;;;;;;;4.70;64.00;;;;;;5059051;28;19999;-85
2022/01/29 10:10:42;;;;;;;;;;;5.10;62.80;;;;;;5057974;28;19962;-85
2022/01/29 10:13:26;;;;;;;;;;;5.40;63.00;;;;;;5077360;28;19909;-88
2022/01/29 10:15:53;;;;;;;;;;;5.70;62.10;;;;;;5050916;28;20019;-83
2022/01/29 10:18:22;;;;;;;;;;;5.80;61.30;;;;;;5075895;28;19908;-83
2022/01/29 10:20:48;;;;;;;;;;;5.90;61.60;;;;;;5062534;28;20301;-83
2022/01/29 10:23:13;;;;;;;;;;;5.90;59.80;;;;;;5075068;28;19916;-83
2022/01/29 10:25:42;;;;;;;;;;;5.80;60.00;;;;;;5057475;28;19912;-82
2022/01/29 10:28:12;;;;;;;;;;;5.80;59.00;;;;;;5058373;28;19909;-82
2022/01/29 10:30:50;;;;;;;;;;;5.70;58.50;;;;;;5058088;28;19992;-82
2022/01/29 10:33:19;;;;;;;;;;;5.80;58.20;;;;;;5061355;28;19908;-81
2022/01/29 10:35:49;;;;;;;;;;;6.00;58.20;;;;;;5060864;28;19920;-82
2022/01/29 10:38:18;;;;;;;;;;;6.30;57.50;;;;;;5080877;28;19927;-82
2022/01/29 10:40:44;;;;;;;;;;;7.00;57.00;;;;;;5056922;28;20324;-83
2022/01/29 10:43:10;;;;;;;;;;;7.70;54.10;;;;;;5061885;28;19912;-82
2022/01/29 10:45:36;;;;;;;;;;;8.20;53.70;;;;;;5072317;28;19908;-82
2022/01/29 10:48:05;;;;;;;;;;;8.50;52.20;;;;;;5094533;28;19931;-83
2022/01/29 10:50:30;;;;;;;;;;;8.70;49.30;;;;;;5078062;28;19984;-82
2022/01/29 10:52:56;;;;;;;;;;;8.60;49.20;;;;;;5077912;28;19908;-82
2022/01/29 10:55:21;;;;;;;;;;;8.40;48.80;;;;;;5068135;28;19908;-82
2022/01/29 10:57:48;;;;;;;;;;;8.10;49.90;;;;;;5056190;28;19992;-83
2022/01/29 11:00:23;;;;;;;;;;;7.90;50.40;;;;;;5079214;28;19908;-84
2022/01/29 11:02:49;;;;;;;;;;;7.80;51.40;;;;;;5062470;28;19912;-83
2022/01/29 11:05:15;;;;;;;;;;;7.60;52.10;;;;;;5072532;28;20361;-84
2022/01/29 11:07:51;;;;;;;;;;;7.40;52.10;;;;;;5055581;28;19908;-84
2022/01/29 11:10:18;;;;;;;;;;;7.30;52.40;;;;;;5055657;28;19999;-84
2022/01/29 11:12:44;;;;;;;;;;;7.30;52.00;;;;;;5055344;28;20262;-83
2022/01/29 11:15:10;;;;;;;;;;;7.30;52.30;;;;;;5055899;28;19908;-81
2022/01/29 11:17:36;;;;;;;;;;;7.50;51.60;;;;;;5070726;28;20380;-83
2022/01/29 11:20:02;;;;;;;;;;;7.70;52.10;;;;;;5056457;28;19905;-84
2022/01/29 11:22:31;;;;;;;;;;;7.80;51.70;;;;;;5054759;28;20008;-86
2022/01/29 11:25:01;;;;;;;;;;;8.00;51.80;;;;;;5056688;28;20362;-86
2022/01/29 11:27:28;;;;;;;;;;;7.90;51.80;;;;;;5056933;28;19915;-86
2022/01/29 11:29:58;;;;;;;;;;;7.80;52.10;;;;;;5070329;28;19915;-86
2022/01/29 11:32:25;;;;;;;;;;;7.70;52.60;;;;;;5054178;28;20365;-86
2022/01/29 11:35:01;;;;;;;;;;;7.60;51.90;;;;;;5056522;28;20301;-87
2022/01/29 11:37:41;;;;;;;;;;;7.40;52.60;;;;;;5056635;28;19931;-87
2022/01/29 11:40:33;;;;;;;;;;;7.30;52.30;;;;;;5056939;28;19993;-86
2022/01/29 11:43:06;;;;;;;;;;;7.30;51.60;;;;;;5053358;28;19916;-86
2022/01/29 11:45:36;;;;;;;;;;;7.30;52.40;;;;;;5056217;28;19908;-86
2022/01/29 11:48:02;;;;;;;;;;;7.30;52.20;;;;;;5051614;28;20262;-86
2022/01/29 11:50:27;;;;;;;;;;;7.30;52.30;;;;;;5056365;28;19966;-87
2022/01/29 11:52:53;;;;;;;;;;;7.30;52.20;;;;;;5055714;28;19916;-86
2022/01/29 11:55:33;;;;;;;;;;;7.20;52.70;;;;;;5055849;28;20284;-87
2022/01/29 11:58:16;;;;;;;;;;;7.20;52.70;;;;;;5055966;28;20319;-87
2022/01/29 12:00:45;;;;;;;;;;;7.10;52.60;;;;;;5067913;28;19908;-87
2022/01/29 12:03:38;;;;;;;;;;;7.00;52.90;;;;;;5057291;28;19919;-86
2022/01/29 12:12:16;;;;;;;;;;;7.20;51.60;;;;;;5067576;28;19915;-85
2022/01/29 12:14:42;;;;;;;;;;;7.10;52.30;;;;;;5052712;28;19908;-88
2022/01/29 12:17:28;;;;;;;;;;;7.10;52.20;;;;;;5057133;28;19914;-88
2022/01/29 12:20:01;;;;;;;;;;;7.10;51.50;;;;;;5054054;28;20285;-87
2022/01/29 12:22:26;;;;;;;;;;;7.00;51.30;;;;;;5072690;28;20414;-88
2022/01/29 12:24:56;;;;;;;;;;;6.90;51.80;;;;;;5056794;28;19908;-88
2022/01/29 12:27:41;;;;;;;;;;;7.00;51.80;;;;;;5057138;28;19908;-89
2022/01/29 12:30:06;;;;;;;;;;;7.00;51.50;;;;;;5056051;28;19965;-87
2022/01/29 12:32:32;;;;;;;;;;;6.90;51.30;;;;;;5055510;28;20311;-87
2022/01/29 12:34:58;;;;;;;;;;;6.80;51.10;;;;;;5073051;28;19908;-86
2022/01/29 12:37:26;;;;;;;;;;;6.90;51.20;;;;;;5076761;28;19908;-87
2022/01/29 12:40:05;;;;;;;;;;;6.80;51.60;;;;;;5059781;28;19916;-88
2022/01/29 12:42:42;;;;;;;;;;;6.80;52.00;;;;;;5058111;28;19951;-87
2022/01/29 12:45:08;;;;;;;;;;;6.80;51.60;;;;;;5058157;28;19938;-88
2022/01/29 12:47:34;;;;;;;;;;;6.60;52.10;;;;;;5060429;28;19932;-87
2022/01/29 12:50:00;;;;;;;;;;;6.50;52.80;;;;;;5059656;28;19908;-87
2022/01/29 12:52:49;;;;;;;;;;;6.40;53.10;;;;;;5059985;28;20002;-87
2022/01/29 12:55:47;;;;;;;;;;;6.30;53.50;;;;;;5067631;28;19916;-87
2022/01/29 13:01:24;;;;;;;;;;;6.10;54.00;;;;;;5015373;28;20413;-87
2022/01/29 13:03:50;;;;;;;;;;;5.90;54.60;;;;;;5053408;28;19913;-87
2022/01/29 13:06:16;;;;;;;;;;;5.80;54.90;;;;;;5077724;28;20409;-87
2022/01/29 13:08:57;;;;;;;;;;;5.80;55.40;;;;;;5061498;28;20293;-90
2022/01/29 13:11:23;;;;;;;;;;;5.70;55.70;;;;;;5060087;28;19962;-84
2022/01/29 13:13:49;;;;;;;;;;;5.60;56.00;;;;;;5078145;28;19912;-85
2022/01/29 13:16:14;;;;;;;;;;;5.60;56.20;;;;;;5059137;28;19920;-87
2022/01/29 13:18:40;;;;;;;;;;;5.60;56.30;;;;;;5059554;28;19908;-87
2022/01/29 13:21:06;;;;;;;;;;;5.50;56.60;;;;;;5059471;28;20554;-85
2022/01/29 13:23:34;;;;;;;;;;;5.50;56.90;;;;;;5059445;28;19920;-85
2022/01/29 13:26:32;;;;;;;;;;;5.40;57.10;;;;;;5057697;28;19961;-85
2022/01/29 13:29:00;;;;;;;;;;;5.40;57.50;;;;;;5022757;28;19939;-85
2022/01/29 13:31:26;;;;;;;;;;;5.30;58.20;;;;;;5059025;28;19915;-86
2022/01/29 13:33:51;;;;;;;;;;;5.30;59.10;;;;;;5060521;28;19915;-89
2022/01/29 13:36:35;;;;;;;;;;;5.20;59.50;;;;;;5078652;28;19908;-87
2022/01/29 13:39:07;;;;;;;;;;;5.10;60.80;;;;;;5074976;28;19909;-87
2022/01/29 13:41:33;;;;;;;;;;;4.90;61.20;;;;;;5056832;28;19995;-86
2022/01/29 13:44:07;;;;;;;;;;;4.80;62.00;;;;;;5072198;28;19992;-86
2022/01/29 13:46:32;;;;;;;;;;;4.70;63.10;;;;;;5074277;28;19912;-86
2022/01/29 13:48:58;;;;;;;;;;;4.60;64.20;;;;;;5060327;28;19916;-87
2022/01/29 13:51:31;;;;;;;;;;;4.40;64.80;;;;;;5067750;28;19915;-86
2022/01/29 13:53:58;;;;;;;;;;;4.30;65.60;;;;;;5067245;28;19909;-86
2022/01/29 13:56:25;;;;;;;;;;;4.20;66.40;;;;;;5086813;28;19953;-87
2022/01/29 13:58:52;;;;;;;;;;;4.10;66.70;;;;;;5068390;28;19919;-85
2022/01/29 14:01:33;;;;;;;;;;;4.10;67.20;;;;;;5068690;28;19915;-85
2022/01/29 14:03:59;;;;;;;;;;;4.00;67.60;;;;;;5075917;28;19959;-87
2022/01/29 14:06:38;;;;;;;;;;;3.90;68.30;;;;;;5073888;28;19916;-87
2022/01/29 14:09:10;;;;;;;;;;;3.90;68.60;;;;;;5088607;28;19908;-86
2022/01/29 14:11:51;;;;;;;;;;;3.80;68.60;;;;;;5060102;28;20392;-86
2022/01/29 14:14:16;;;;;;;;;;;3.80;68.80;;;;;;5074557;28;19909;-85
2022/01/29 14:16:42;;;;;;;;;;;3.90;69.20;;;;;;5059787;28;19916;-86
2022/01/29 14:19:18;;;;;;;;;;;3.90;69.20;;;;;;5075942;28;19909;-86
2022/01/29 14:21:43;;;;;;;;;;;3.90;69.50;;;;;;5053718;28;19919;-86
2022/01/29 14:24:09;;;;;;;;;;;3.90;69.40;;;;;;5057692;28;19916;-85
2022/01/29 14:26:35;;;;;;;;;;;3.90;69.60;;;;;;5057373;28;19908;-87
2022/01/29 14:29:00;;;;;;;;;;;3.90;69.60;;;;;;5050864;28;20375;-86
2022/01/29 14:31:26;;;;;;;;;;;3.90;70.20;;;;;;5060658;28;20315;-85
2022/01/29 14:33:51;;;;;;;;;;;3.90;70.10;;;;;;5057923;28;19955;-87
2022/01/29 14:36:17;;;;;;;;;;;3.90;70.20;;;;;;5057294;28;20375;-87
2022/01/29 14:38:42;;;;;;;;;;;3.90;70.50;;;;;;5056146;28;19958;-86
2022/01/29 14:41:08;;;;;;;;;;;3.90;70.80;;;;;;5062459;28;19970;-86
2022/01/29 14:43:34;;;;;;;;;;;3.80;70.90;;;;;;5057740;28;19912;-86
2022/01/29 14:46:00;;;;;;;;;;;3.80;70.90;;;;;;5058399;28;20222;-86
2022/01/29 14:48:26;;;;;;;;;;;3.80;71.00;;;;;;5057266;28;19915;-86
2022/01/29 14:50:52;;;;;;;;;;;3.80;71.00;;;;;;5057687;28;20032;-86
2022/01/29 14:53:19;;;;;;;;;;;3.80;71.10;;;;;;5055644;28;19909;-86
2022/01/29 14:55:44;;;;;;;;;;;3.80;71.20;;;;;;5056900;28;20387;-85
2022/01/29 14:58:10;;;;;;;;;;;3.80;71.10;;;;;;5054217;28;19916;-87
2022/01/29 15:00:35;;;;;;;;;;;3.80;71.30;;;;;;5056933;28;20389;-87
2022/01/29 15:03:03;;;;;;;;;;;3.80;71.30;;;;;;5056463;28;19935;-85
2022/01/29 15:05:29;;;;;;;;;;;3.80;71.30;;;;;;5057394;28;20003;-87
2022/01/29 15:07:55;;;;;;;;;;;3.80;71.30;;;;;;5056935;28;19957;-87
2022/01/29 15:10:20;;;;;;;;;;;3.80;71.40;;;;;;5059615;28;19908;-86
2022/01/29 15:15:57;;;;;;;;;;;3.80;71.40;;;;;;5072433;28;19932;-88
2022/01/29 15:18:22;;;;;;;;;;;3.80;71.40;;;;;;5057865;28;19909;-89
2022/01/29 15:20:52;;;;;;;;;;;3.80;71.40;;;;;;5076854;28;19916;-88
2022/01/29 15:23:18;;;;;;;;;;;3.70;71.40;;;;;;5057645;28;19920;-86
2022/01/29 15:25:46;;;;;;;;;;;3.70;71.50;;;;;;5057526;28;19919;-87
2022/01/29 15:28:12;;;;;;;;;;;3.70;71.50;;;;;;5053230;28;19908;-87
2022/01/29 15:30:40;;;;;;;;;;;3.80;71.50;;;;;;5072511;28;19916;-89
2022/01/29 15:33:06;;;;;;;;;;;3.70;71.50;;;;;;5053924;28;19916;-87
2022/01/29 15:35:33;;;;;;;;;;;3.70;71.60;;;;;;5051416;28;19916;-88
2022/01/29 15:37:58;;;;;;;;;;;3.70;71.70;;;;;;5054998;28;20277;-87
2022/01/29 15:40:24;;;;;;;;;;;3.60;71.70;;;;;;5056478;28;19909;-87
2022/01/29 15:42:50;;;;;;;;;;;3.60;71.80;;;;;;5056822;28;19916;-87
2022/01/29 15:45:15;;;;;;;;;;;3.60;71.90;;;;;;5057210;28;19996;-87
2022/01/29 15:47:43;;;;;;;;;;;3.50;72.00;;;;;;5058254;28;19954;-86
2022/01/29 15:50:09;;;;;;;;;;;3.50;72.20;;;;;;5056084;28;19908;-86
2022/01/29 15:52:34;;;;;;;;;;;3.50;72.20;;;;;;5057474;28;19916;-85
2022/01/29 15:55:00;;;;;;;;;;;3.50;72.20;;;;;;5056922;28;19935;-87
2022/01/29 15:57:36;;;;;;;;;;;3.50;72.30;;;;;;5057723;28;19911;-88
2022/01/29 16:00:08;;;;;;;;;;;3.50;72.30;;;;;;5055642;28;19974;-88
2022/01/29 16:02:34;;;;;;;;;;;3.50;72.30;;;;;;5073402;28;19935;-88
2022/01/29 16:05:00;;;;;;;;;;;3.50;72.60;;;;;;5056937;28;19908;-85
2022/01/29 16:07:26;;;;;;;;;;;3.50;72.60;;;;;;5057013;28;19909;-86
2022/01/29 16:09:51;;;;;;;;;;;3.40;72.70;;;;;;5057118;28;20391;-86
2022/01/29 16:12:17;;;;;;;;;;;3.40;72.70;;;;;;5057690;28;19915;-86
2022/01/29 16:14:43;;;;;;;;;;;3.40;73.00;;;;;;5055471;28;19935;-89
2022/01/29 16:17:09;;;;;;;;;;;3.40;73.00;;;;;;5057361;28;20027;-88
2022/01/29 16:19:34;;;;;;;;;;;3.40;73.10;;;;;;5057525;28;20370;-87
2022/01/29 16:22:00;;;;;;;;;;;3.40;73.20;;;;;;5057407;28;20318;-87
2022/01/29 16:24:27;;;;;;;;;;;3.40;73.40;;;;;;5075938;28;20361;-87
2022/01/29 16:26:53;;;;;;;;;;;3.40;73.60;;;;;;5058085;28;19938;-87
2022/01/29 16:29:18;;;;;;;;;;;3.30;73.70;;;;;;5054038;28;20352;-87
2022/01/29 16:31:44;;;;;;;;;;;3.30;73.90;;;;;;5056913;28;19912;-87
2022/01/29 16:34:11;;;;;;;;;;;3.30;74.20;;;;;;5055316;28;19916;-87